sensor_id;sensor_type;location;lat;lon;timestamp;P1;durP1;ratioP1;P2;durP2;ratioP2
32365;SDS011;18837;46.832;16.838;2022-12-11T00:01:17;26.03;;;17.10;;
32365;SDS011;18837;46.832;16.838;2022-12-11T00:03:45;23.57;;;15.37;;
32365;SDS011;18837;46.832;16.838;2022-12-11T00:09:18;25.70;;;16.93;;
32365;SDS011;18837;46.832;16.838;2022-12-11T00:11:47;24.67;;;15.90;;
32365;SDS011;18837;46.832;16.838;2022-12-11T00:14:13;24.43;;;15.70;;
32365;SDS011;18837;46.832;16.838;2022-12-11T00:16:40;22.93;;;15.10;;
32365;SDS011;18837;46.832;16.838;2022-12-11T00:19:06;22.37;;;15.47;;
32365;SDS011;18837;46.832;16.838;2022-12-11T00:21:32;23.60;;;15.10;;
32365;SDS011;18837;46.832;16.838;2022-12-11T00:26:44;24.00;;;16.67;;
32365;SDS011;18837;46.832;16.838;2022-12-11T00:29:10;21.60;;;14.20;;
32365;SDS011;18837;46.832;16.838;2022-12-11T00:31:39;22.90;;;14.77;;
32365;SDS011;18837;46.832;16.838;2022-12-11T00:34:06;20.23;;;13.60;;
32365;SDS011;18837;46.832;16.838;2022-12-11T00:36:32;21.33;;;14.57;;
32365;SDS011;18837;46.832;16.838;2022-12-11T00:45:23;20.17;;;14.47;;
32365;SDS011;18837;46.832;16.838;2022-12-11T00:47:49;19.13;;;13.30;;
32365;SDS011;18837;46.832;16.838;2022-12-11T00:50:15;19.53;;;12.90;;
32365;SDS011;18837;46.832;16.838;2022-12-11T00:52:41;20.77;;;13.17;;
32365;SDS011;18837;46.832;16.838;2022-12-11T00:55:06;19.67;;;12.67;;
32365;SDS011;18837;46.832;16.838;2022-12-11T01:00:41;19.43;;;12.47;;
32365;SDS011;18837;46.832;16.838;2022-12-11T01:03:07;17.53;;;11.87;;
32365;SDS011;18837;46.832;16.838;2022-12-11T01:05:34;17.47;;;12.37;;
32365;SDS011;18837;46.832;16.838;2022-12-11T01:08:00;19.03;;;12.10;;
32365;SDS011;18837;46.832;16.838;2022-12-11T01:10:27;15.87;;;11.30;;
32365;SDS011;18837;46.832;16.838;2022-12-11T01:19:49;17.00;;;11.40;;
32365;SDS011;18837;46.832;16.838;2022-12-11T01:22:14;17.13;;;11.60;;
32365;SDS011;18837;46.832;16.838;2022-12-11T01:24:40;15.43;;;11.27;;
32365;SDS011;18837;46.832;16.838;2022-12-11T01:27:06;13.87;;;9.93;;
32365;SDS011;18837;46.832;16.838;2022-12-11T01:29:32;15.67;;;10.17;;
32365;SDS011;18837;46.832;16.838;2022-12-11T01:31:58;16.70;;;10.40;;
32365;SDS011;18837;46.832;16.838;2022-12-11T01:37:11;18.13;;;11.20;;
32365;SDS011;18837;46.832;16.838;2022-12-11T01:39:37;16.27;;;10.87;;
32365;SDS011;18837;46.832;16.838;2022-12-11T01:42:03;16.53;;;11.03;;
32365;SDS011;18837;46.832;16.838;2022-12-11T01:47:07;14.93;;;10.20;;
32365;SDS011;18837;46.832;16.838;2022-12-11T01:55:34;15.13;;;10.53;;
32365;SDS011;18837;46.832;16.838;2022-12-11T01:58:03;17.63;;;10.17;;
32365;SDS011;18837;46.832;16.838;2022-12-11T02:00:29;18.43;;;10.73;;
32365;SDS011;18837;46.832;16.838;2022-12-11T02:02:55;16.43;;;10.90;;
32365;SDS011;18837;46.832;16.838;2022-12-11T02:05:21;17.13;;;10.83;;
32365;SDS011;18837;46.832;16.838;2022-12-11T02:10:40;17.10;;;11.40;;
32365;SDS011;18837;46.832;16.838;2022-12-11T02:13:25;16.23;;;10.33;;
32365;SDS011;18837;46.832;16.838;2022-12-11T02:16:22;16.60;;;10.20;;
32365;SDS011;18837;46.832;16.838;2022-12-11T02:18:54;14.97;;;10.80;;
32365;SDS011;18837;46.832;16.838;2022-12-11T02:21:31;17.07;;;10.33;;
32365;SDS011;18837;46.832;16.838;2022-12-11T02:30:43;13.30;;;9.07;;
32365;SDS011;18837;46.832;16.838;2022-12-11T02:33:15;15.40;;;10.07;;
32365;SDS011;18837;46.832;16.838;2022-12-11T02:35:43;13.27;;;9.57;;
32365;SDS011;18837;46.832;16.838;2022-12-11T02:38:21;15.63;;;9.93;;
32365;SDS011;18837;46.832;16.838;2022-12-11T02:40:52;13.83;;;9.43;;
32365;SDS011;18837;46.832;16.838;2022-12-11T02:46:08;16.83;;;10.20;;
32365;SDS011;18837;46.832;16.838;2022-12-11T02:48:35;14.73;;;10.20;;
32365;SDS011;18837;46.832;16.838;2022-12-11T02:51:02;13.07;;;9.80;;
32365;SDS011;18837;46.832;16.838;2022-12-11T02:53:30;13.60;;;9.70;;
32365;SDS011;18837;46.832;16.838;2022-12-11T02:56:03;15.33;;;10.73;;
32365;SDS011;18837;46.832;16.838;2022-12-11T03:04:46;17.80;;;9.87;;
32365;SDS011;18837;46.832;16.838;2022-12-11T03:07:17;17.43;;;10.43;;
32365;SDS011;18837;46.832;16.838;2022-12-11T03:09:48;16.77;;;10.43;;
32365;SDS011;18837;46.832;16.838;2022-12-11T03:12:16;16.47;;;10.73;;
32365;SDS011;18837;46.832;16.838;2022-12-11T03:14:44;16.40;;;11.13;;
32365;SDS011;18837;46.832;16.838;2022-12-11T03:23:03;16.17;;;10.53;;
32365;SDS011;18837;46.832;16.838;2022-12-11T03:25:58;16.27;;;11.00;;
32365;SDS011;18837;46.832;16.838;2022-12-11T03:28:40;14.37;;;9.83;;
32365;SDS011;18837;46.832;16.838;2022-12-11T03:38:29;14.73;;;9.37;;
32365;SDS011;18837;46.832;16.838;2022-12-11T03:41:00;16.43;;;10.63;;
32365;SDS011;18837;46.832;16.838;2022-12-11T03:43:28;18.13;;;11.23;;
32365;SDS011;18837;46.832;16.838;2022-12-11T03:45:56;16.30;;;9.90;;
32365;SDS011;18837;46.832;16.838;2022-12-11T03:48:24;14.23;;;9.67;;
32365;SDS011;18837;46.832;16.838;2022-12-11T03:53:40;15.30;;;9.80;;
32365;SDS011;18837;46.832;16.838;2022-12-11T03:56:08;15.27;;;9.77;;
32365;SDS011;18837;46.832;16.838;2022-12-11T03:58:36;14.10;;;9.90;;
32365;SDS011;18837;46.832;16.838;2022-12-11T04:01:02;14.07;;;9.30;;
32365;SDS011;18837;46.832;16.838;2022-12-11T04:03:32;14.80;;;10.20;;
32365;SDS011;18837;46.832;16.838;2022-12-11T04:12:41;14.20;;;9.63;;
32365;SDS011;18837;46.832;16.838;2022-12-11T04:15:07;14.47;;;9.23;;
32365;SDS011;18837;46.832;16.838;2022-12-11T04:17:34;14.10;;;9.63;;
32365;SDS011;18837;46.832;16.838;2022-12-11T04:20:20;14.67;;;9.07;;
32365;SDS011;18837;46.832;16.838;2022-12-11T04:23:05;13.87;;;9.27;;
32365;SDS011;18837;46.832;16.838;2022-12-11T04:28:52;12.50;;;8.53;;
32365;SDS011;18837;46.832;16.838;2022-12-11T04:31:19;15.00;;;9.43;;
32365;SDS011;18837;46.832;16.838;2022-12-11T04:33:46;12.20;;;8.67;;
32365;SDS011;18837;46.832;16.838;2022-12-11T04:36:12;11.47;;;8.50;;
32365;SDS011;18837;46.832;16.838;2022-12-11T04:38:39;13.83;;;9.20;;
32365;SDS011;18837;46.832;16.838;2022-12-11T04:47:23;11.03;;;7.63;;
32365;SDS011;18837;46.832;16.838;2022-12-11T04:49:49;12.07;;;8.67;;
32365;SDS011;18837;46.832;16.838;2022-12-11T04:52:16;13.97;;;9.13;;
32365;SDS011;18837;46.832;16.838;2022-12-11T04:54:42;11.73;;;8.27;;
32365;SDS011;18837;46.832;16.838;2022-12-11T04:57:08;12.63;;;8.30;;
32365;SDS011;18837;46.832;16.838;2022-12-11T05:02:20;10.37;;;7.27;;
32365;SDS011;18837;46.832;16.838;2022-12-11T05:04:45;11.70;;;8.43;;
32365;SDS011;18837;46.832;16.838;2022-12-11T05:07:11;11.37;;;7.80;;
32365;SDS011;18837;46.832;16.838;2022-12-11T05:09:37;11.10;;;7.93;;
32365;SDS011;18837;46.832;16.838;2022-12-11T05:12:02;13.63;;;8.37;;
32365;SDS011;18837;46.832;16.838;2022-12-11T05:14:28;12.93;;;8.13;;
32365;SDS011;18837;46.832;16.838;2022-12-11T05:23:08;9.03;;;7.07;;
32365;SDS011;18837;46.832;16.838;2022-12-11T05:25:33;10.40;;;7.30;;
32365;SDS011;18837;46.832;16.838;2022-12-11T05:27:59;8.63;;;6.50;;
32365;SDS011;18837;46.832;16.838;2022-12-11T05:30:25;10.07;;;7.50;;
32365;SDS011;18837;46.832;16.838;2022-12-11T05:32:50;7.93;;;5.70;;
32365;SDS011;18837;46.832;16.838;2022-12-11T05:38:11;8.90;;;6.77;;
32365;SDS011;18837;46.832;16.838;2022-12-11T05:40:37;7.97;;;6.47;;
32365;SDS011;18837;46.832;16.838;2022-12-11T05:43:02;8.97;;;6.83;;
32365;SDS011;18837;46.832;16.838;2022-12-11T05:48:03;7.93;;;6.20;;
32365;SDS011;18837;46.832;16.838;2022-12-11T05:56:44;8.70;;;6.17;;
32365;SDS011;18837;46.832;16.838;2022-12-11T05:59:11;7.90;;;6.13;;
32365;SDS011;18837;46.832;16.838;2022-12-11T06:01:37;8.40;;;5.73;;
32365;SDS011;18837;46.832;16.838;2022-12-11T06:04:05;6.93;;;5.17;;
32365;SDS011;18837;46.832;16.838;2022-12-11T06:06:32;8.20;;;5.90;;
32365;SDS011;18837;46.832;16.838;2022-12-11T06:08:58;8.53;;;5.93;;
32365;SDS011;18837;46.832;16.838;2022-12-11T06:11:25;8.07;;;5.83;;
32365;SDS011;18837;46.832;16.838;2022-12-11T06:13:53;7.57;;;5.50;;
32365;SDS011;18837;46.832;16.838;2022-12-11T06:16:19;7.33;;;5.90;;
32365;SDS011;18837;46.832;16.838;2022-12-11T06:18:45;6.47;;;5.20;;
32365;SDS011;18837;46.832;16.838;2022-12-11T06:23:46;6.73;;;5.43;;
32365;SDS011;18837;46.832;16.838;2022-12-11T06:26:14;7.23;;;5.20;;
32365;SDS011;18837;46.832;16.838;2022-12-11T06:28:40;6.60;;;5.43;;
32365;SDS011;18837;46.832;16.838;2022-12-11T06:31:06;6.13;;;4.73;;
32365;SDS011;18837;46.832;16.838;2022-12-11T06:33:33;7.03;;;4.77;;
32365;SDS011;18837;46.832;16.838;2022-12-11T06:36:06;8.23;;;5.27;;
32365;SDS011;18837;46.832;16.838;2022-12-11T06:38:34;6.67;;;5.30;;
32365;SDS011;18837;46.832;16.838;2022-12-11T06:41:01;6.43;;;4.47;;
32365;SDS011;18837;46.832;16.838;2022-12-11T06:43:29;6.40;;;5.00;;
32365;SDS011;18837;46.832;16.838;2022-12-11T06:45:58;6.10;;;4.77;;
32365;SDS011;18837;46.832;16.838;2022-12-11T06:48:26;5.50;;;4.70;;
32365;SDS011;18837;46.832;16.838;2022-12-11T06:50:53;6.90;;;4.60;;
32365;SDS011;18837;46.832;16.838;2022-12-11T06:53:18;5.83;;;4.47;;
32365;SDS011;18837;46.832;16.838;2022-12-11T06:55:44;7.00;;;5.07;;
32365;SDS011;18837;46.832;16.838;2022-12-11T06:58:10;6.57;;;5.00;;
32365;SDS011;18837;46.832;16.838;2022-12-11T07:00:36;6.87;;;4.60;;
32365;SDS011;18837;46.832;16.838;2022-12-11T07:03:02;6.27;;;4.67;;
32365;SDS011;18837;46.832;16.838;2022-12-11T07:05:29;6.40;;;4.63;;
32365;SDS011;18837;46.832;16.838;2022-12-11T07:07:55;5.60;;;4.43;;
32365;SDS011;18837;46.832;16.838;2022-12-11T07:10:21;6.07;;;4.57;;
32365;SDS011;18837;46.832;16.838;2022-12-11T07:12:48;6.80;;;4.27;;
32365;SDS011;18837;46.832;16.838;2022-12-11T07:15:16;6.37;;;4.47;;
32365;SDS011;18837;46.832;16.838;2022-12-11T07:17:42;5.53;;;4.57;;
32365;SDS011;18837;46.832;16.838;2022-12-11T07:20:08;4.63;;;3.87;;
32365;SDS011;18837;46.832;16.838;2022-12-11T07:22:35;6.00;;;4.80;;
32365;SDS011;18837;46.832;16.838;2022-12-11T07:25:01;6.20;;;4.50;;
32365;SDS011;18837;46.832;16.838;2022-12-11T07:27:28;6.60;;;4.50;;
32365;SDS011;18837;46.832;16.838;2022-12-11T07:29:54;7.00;;;4.80;;
32365;SDS011;18837;46.832;16.838;2022-12-11T07:32:20;6.07;;;4.90;;
32365;SDS011;18837;46.832;16.838;2022-12-11T07:34:47;6.17;;;4.80;;
32365;SDS011;18837;46.832;16.838;2022-12-11T07:37:13;6.13;;;4.33;;
32365;SDS011;18837;46.832;16.838;2022-12-11T07:39:39;7.63;;;5.20;;
32365;SDS011;18837;46.832;16.838;2022-12-11T07:42:05;7.87;;;4.90;;
32365;SDS011;18837;46.832;16.838;2022-12-11T07:44:32;7.43;;;5.27;;
32365;SDS011;18837;46.832;16.838;2022-12-11T07:46:58;9.80;;;6.43;;
32365;SDS011;18837;46.832;16.838;2022-12-11T07:49:23;7.37;;;5.47;;
32365;SDS011;18837;46.832;16.838;2022-12-11T07:51:49;8.07;;;5.20;;
32365;SDS011;18837;46.832;16.838;2022-12-11T07:54:15;9.60;;;5.00;;
32365;SDS011;18837;46.832;16.838;2022-12-11T07:56:41;10.23;;;5.07;;
32365;SDS011;18837;46.832;16.838;2022-12-11T07:59:08;12.30;;;5.60;;
32365;SDS011;18837;46.832;16.838;2022-12-11T08:01:35;9.43;;;5.93;;
32365;SDS011;18837;46.832;16.838;2022-12-11T08:04:02;19.43;;;6.53;;
32365;SDS011;18837;46.832;16.838;2022-12-11T08:06:30;14.40;;;6.03;;
32365;SDS011;18837;46.832;16.838;2022-12-11T08:08:58;10.10;;;5.97;;
32365;SDS011;18837;46.832;16.838;2022-12-11T08:11:25;13.60;;;6.70;;
32365;SDS011;18837;46.832;16.838;2022-12-11T08:13:52;16.87;;;6.17;;
32365;SDS011;18837;46.832;16.838;2022-12-11T08:16:18;15.07;;;7.37;;
32365;SDS011;18837;46.832;16.838;2022-12-11T08:18:45;10.30;;;6.13;;
32365;SDS011;18837;46.832;16.838;2022-12-11T08:21:30;10.90;;;5.73;;
32365;SDS011;18837;46.832;16.838;2022-12-11T08:23:55;8.77;;;6.40;;
32365;SDS011;18837;46.832;16.838;2022-12-11T08:26:22;9.60;;;7.10;;
32365;SDS011;18837;46.832;16.838;2022-12-11T08:28:50;15.97;;;7.17;;
32365;SDS011;18837;46.832;16.838;2022-12-11T08:31:16;10.43;;;7.10;;
32365;SDS011;18837;46.832;16.838;2022-12-11T08:33:43;10.00;;;6.40;;
32365;SDS011;18837;46.832;16.838;2022-12-11T08:36:10;10.63;;;7.80;;
32365;SDS011;18837;46.832;16.838;2022-12-11T08:38:38;8.57;;;6.77;;
32365;SDS011;18837;46.832;16.838;2022-12-11T08:43:42;11.47;;;6.97;;
32365;SDS011;18837;46.832;16.838;2022-12-11T08:46:08;10.13;;;6.87;;
32365;SDS011;18837;46.832;16.838;2022-12-11T08:48:35;12.10;;;7.90;;
32365;SDS011;18837;46.832;16.838;2022-12-11T08:51:03;10.30;;;7.37;;
32365;SDS011;18837;46.832;16.838;2022-12-11T08:53:30;8.90;;;6.80;;
32365;SDS011;18837;46.832;16.838;2022-12-11T08:56:08;11.80;;;7.63;;
32365;SDS011;18837;46.832;16.838;2022-12-11T08:58:35;12.80;;;8.10;;
32365;SDS011;18837;46.832;16.838;2022-12-11T09:01:20;11.40;;;7.93;;
32365;SDS011;18837;46.832;16.838;2022-12-11T09:03:48;12.40;;;8.13;;
32365;SDS011;18837;46.832;16.838;2022-12-11T09:06:16;14.27;;;8.17;;
32365;SDS011;18837;46.832;16.838;2022-12-11T09:08:44;19.60;;;9.63;;
32365;SDS011;18837;46.832;16.838;2022-12-11T09:14:06;14.27;;;9.03;;
32365;SDS011;18837;46.832;16.838;2022-12-11T09:16:32;14.23;;;9.00;;
32365;SDS011;18837;46.832;16.838;2022-12-11T09:18:58;13.33;;;8.87;;
32365;SDS011;18837;46.832;16.838;2022-12-11T09:21:26;15.50;;;8.73;;
32365;SDS011;18837;46.832;16.838;2022-12-11T09:23:54;17.07;;;9.03;;
32365;SDS011;18837;46.832;16.838;2022-12-11T09:26:21;14.63;;;9.30;;
32365;SDS011;18837;46.832;16.838;2022-12-11T09:28:47;21.23;;;9.53;;
32365;SDS011;18837;46.832;16.838;2022-12-11T09:31:18;15.67;;;9.00;;
32365;SDS011;18837;46.832;16.838;2022-12-11T09:33:49;14.67;;;8.53;;
32365;SDS011;18837;46.832;16.838;2022-12-11T09:36:17;15.30;;;9.07;;
32365;SDS011;18837;46.832;16.838;2022-12-11T09:38:43;16.00;;;9.10;;
32365;SDS011;18837;46.832;16.838;2022-12-11T09:43:48;13.77;;;9.27;;
32365;SDS011;18837;46.832;16.838;2022-12-11T09:46:19;13.37;;;8.73;;
32365;SDS011;18837;46.832;16.838;2022-12-11T09:48:48;17.30;;;8.90;;
32365;SDS011;18837;46.832;16.838;2022-12-11T09:51:20;16.90;;;9.03;;
32365;SDS011;18837;46.832;16.838;2022-12-11T09:53:52;15.17;;;8.70;;
32365;SDS011;18837;46.832;16.838;2022-12-11T09:56:21;13.20;;;9.03;;
32365;SDS011;18837;46.832;16.838;2022-12-11T10:02:00;18.77;;;9.37;;
32365;SDS011;18837;46.832;16.838;2022-12-11T10:18:58;12.80;;;8.60;;
32365;SDS011;18837;46.832;16.838;2022-12-11T10:21:31;12.40;;;8.37;;
32365;SDS011;18837;46.832;16.838;2022-12-11T10:24:04;12.87;;;7.70;;
32365;SDS011;18837;46.832;16.838;2022-12-11T10:27:09;10.93;;;7.43;;
32365;SDS011;18837;46.832;16.838;2022-12-11T10:29:38;13.20;;;7.73;;
32365;SDS011;18837;46.832;16.838;2022-12-11T10:32:04;11.10;;;7.67;;
32365;SDS011;18837;46.832;16.838;2022-12-11T10:34:40;14.33;;;9.20;;
32365;SDS011;18837;46.832;16.838;2022-12-11T10:37:09;12.50;;;7.47;;
32365;SDS011;18837;46.832;16.838;2022-12-11T10:39:35;11.47;;;8.17;;
32365;SDS011;18837;46.832;16.838;2022-12-11T10:42:01;11.20;;;8.40;;
32365;SDS011;18837;46.832;16.838;2022-12-11T10:44:41;11.30;;;8.07;;
32365;SDS011;18837;46.832;16.838;2022-12-11T10:47:20;10.97;;;7.67;;
32365;SDS011;18837;46.832;16.838;2022-12-11T10:49:56;14.13;;;8.47;;
32365;SDS011;18837;46.832;16.838;2022-12-11T10:52:31;12.00;;;8.00;;
32365;SDS011;18837;46.832;16.838;2022-12-11T10:55:21;10.87;;;7.10;;
32365;SDS011;18837;46.832;16.838;2022-12-11T10:58:22;13.03;;;7.63;;
32365;SDS011;18837;46.832;16.838;2022-12-11T11:01:09;12.40;;;8.17;;
32365;SDS011;18837;46.832;16.838;2022-12-11T11:06:27;14.70;;;8.07;;
32365;SDS011;18837;46.832;16.838;2022-12-11T11:08:54;16.40;;;7.43;;
32365;SDS011;18837;46.832;16.838;2022-12-11T11:11:29;13.23;;;7.87;;
32365;SDS011;18837;46.832;16.838;2022-12-11T11:14:04;16.63;;;7.57;;
32365;SDS011;18837;46.832;16.838;2022-12-11T11:16:41;11.53;;;7.53;;
32365;SDS011;18837;46.832;16.838;2022-12-11T11:19:29;12.80;;;7.90;;
32365;SDS011;18837;46.832;16.838;2022-12-11T11:21:57;11.90;;;8.77;;
32365;SDS011;18837;46.832;16.838;2022-12-11T11:24:37;11.67;;;7.67;;
32365;SDS011;18837;46.832;16.838;2022-12-11T11:30:00;12.07;;;7.73;;
32365;SDS011;18837;46.832;16.838;2022-12-11T11:32:33;10.43;;;7.23;;
32365;SDS011;18837;46.832;16.838;2022-12-11T11:37:35;11.43;;;8.03;;
32365;SDS011;18837;46.832;16.838;2022-12-11T11:40:24;16.17;;;7.60;;
32365;SDS011;18837;46.832;16.838;2022-12-11T11:42:55;23.23;;;9.07;;
32365;SDS011;18837;46.832;16.838;2022-12-11T11:45:39;211.47;;;24.77;;
32365;SDS011;18837;46.832;16.838;2022-12-11T11:50:50;140.30;;;17.83;;
32365;SDS011;18837;46.832;16.838;2022-12-11T11:53:30;104.70;;;15.90;;
32365;SDS011;18837;46.832;16.838;2022-12-11T12:01:24;67.23;;;12.50;;
32365;SDS011;18837;46.832;16.838;2022-12-11T12:03:55;61.70;;;13.00;;
32365;SDS011;18837;46.832;16.838;2022-12-11T12:12:07;42.40;;;10.63;;
32365;SDS011;18837;46.832;16.838;2022-12-11T12:15:13;32.17;;;9.67;;
32365;SDS011;18837;46.832;16.838;2022-12-11T12:17:50;32.97;;;8.83;;
32365;SDS011;18837;46.832;16.838;2022-12-11T12:20:29;31.07;;;9.30;;
32365;SDS011;18837;46.832;16.838;2022-12-11T12:25:44;28.73;;;8.77;;
32365;SDS011;18837;46.832;16.838;2022-12-11T12:28:37;20.10;;;8.23;;
32365;SDS011;18837;46.832;16.838;2022-12-11T12:42:24;20.17;;;8.50;;
32365;SDS011;18837;46.832;16.838;2022-12-11T12:47:58;14.40;;;7.80;;
32365;SDS011;18837;46.832;16.838;2022-12-11T12:50:27;15.20;;;8.00;;
32365;SDS011;18837;46.832;16.838;2022-12-11T12:53:03;17.43;;;9.43;;
32365;SDS011;18837;46.832;16.838;2022-12-11T12:55:30;16.20;;;7.97;;
32365;SDS011;18837;46.832;16.838;2022-12-11T13:00:28;15.53;;;8.77;;
32365;SDS011;18837;46.832;16.838;2022-12-11T13:03:24;16.07;;;8.00;;
32365;SDS011;18837;46.832;16.838;2022-12-11T13:06:00;14.00;;;7.97;;
32365;SDS011;18837;46.832;16.838;2022-12-11T13:08:31;15.07;;;8.53;;
32365;SDS011;18837;46.832;16.838;2022-12-11T13:11:07;11.13;;;8.27;;
32365;SDS011;18837;46.832;16.838;2022-12-11T13:18:45;10.63;;;7.80;;
32365;SDS011;18837;46.832;16.838;2022-12-11T13:21:33;11.17;;;8.27;;
32365;SDS011;18837;46.832;16.838;2022-12-11T13:24:15;10.67;;;7.43;;
32365;SDS011;18837;46.832;16.838;2022-12-11T13:26:51;11.90;;;7.27;;
32365;SDS011;18837;46.832;16.838;2022-12-11T13:29:32;13.33;;;8.67;;
32365;SDS011;18837;46.832;16.838;2022-12-11T13:32:18;10.73;;;7.73;;
32365;SDS011;18837;46.832;16.838;2022-12-11T13:34:50;12.90;;;8.57;;
32365;SDS011;18837;46.832;16.838;2022-12-11T13:39:58;12.10;;;8.13;;
32365;SDS011;18837;46.832;16.838;2022-12-11T13:42:32;13.40;;;8.63;;
32365;SDS011;18837;46.832;16.838;2022-12-11T13:45:22;10.67;;;8.33;;
32365;SDS011;18837;46.832;16.838;2022-12-11T13:47:55;11.50;;;8.23;;
32365;SDS011;18837;46.832;16.838;2022-12-11T13:50:27;10.60;;;8.10;;
32365;SDS011;18837;46.832;16.838;2022-12-11T13:52:55;14.65;;;9.35;;
32365;SDS011;18837;46.832;16.838;2022-12-11T13:55:25;14.27;;;9.67;;
32365;SDS011;18837;46.832;16.838;2022-12-11T13:57:58;11.70;;;8.50;;
32365;SDS011;18837;46.832;16.838;2022-12-11T14:00:29;11.87;;;8.63;;
32365;SDS011;18837;46.832;16.838;2022-12-11T14:02:57;16.03;;;9.23;;
32365;SDS011;18837;46.832;16.838;2022-12-11T14:05:32;12.10;;;8.83;;
32365;SDS011;18837;46.832;16.838;2022-12-11T14:08:00;10.50;;;7.57;;
32365;SDS011;18837;46.832;16.838;2022-12-11T14:10:32;12.37;;;8.07;;
32365;SDS011;18837;46.832;16.838;2022-12-11T14:15:29;10.73;;;7.90;;
32365;SDS011;18837;46.832;16.838;2022-12-11T14:18:03;14.43;;;8.33;;
32365;SDS011;18837;46.832;16.838;2022-12-11T14:20:31;9.83;;;7.37;;
32365;SDS011;18837;46.832;16.838;2022-12-11T14:26:02;14.93;;;8.13;;
32365;SDS011;18837;46.832;16.838;2022-12-11T14:28:49;12.93;;;8.57;;
32365;SDS011;18837;46.832;16.838;2022-12-11T14:31:26;11.30;;;8.40;;
32365;SDS011;18837;46.832;16.838;2022-12-11T14:33:53;22.13;;;9.10;;
32365;SDS011;18837;46.832;16.838;2022-12-11T14:36:23;11.37;;;8.47;;
32365;SDS011;18837;46.832;16.838;2022-12-11T14:38:54;12.10;;;8.43;;
32365;SDS011;18837;46.832;16.838;2022-12-11T14:42:10;13.40;;;8.80;;
32365;SDS011;18837;46.832;16.838;2022-12-11T14:44:24;12.30;;;8.90;;
32365;SDS011;18837;46.832;16.838;2022-12-11T14:46:55;13.77;;;8.77;;
32365;SDS011;18837;46.832;16.838;2022-12-11T14:52:24;14.53;;;8.90;;
32365;SDS011;18837;46.832;16.838;2022-12-11T14:55:05;12.23;;;8.63;;
32365;SDS011;18837;46.832;16.838;2022-12-11T14:57:34;11.77;;;9.03;;
32365;SDS011;18837;46.832;16.838;2022-12-11T15:00:03;10.67;;;7.07;;
32365;SDS011;18837;46.832;16.838;2022-12-11T15:02:31;11.17;;;8.13;;
32365;SDS011;18837;46.832;16.838;2022-12-11T15:05:16;12.20;;;8.60;;
32365;SDS011;18837;46.832;16.838;2022-12-11T15:07:55;10.57;;;8.10;;
32365;SDS011;18837;46.832;16.838;2022-12-11T15:10:28;11.83;;;8.57;;
32365;SDS011;18837;46.832;16.838;2022-12-11T15:13:05;10.17;;;8.27;;
32365;SDS011;18837;46.832;16.838;2022-12-11T15:15:36;10.97;;;8.13;;
32365;SDS011;18837;46.832;16.838;2022-12-11T15:18:18;13.33;;;8.37;;
32365;SDS011;18837;46.832;16.838;2022-12-11T15:20:55;11.37;;;7.90;;
32365;SDS011;18837;46.832;16.838;2022-12-11T15:23:29;10.43;;;8.17;;
32365;SDS011;18837;46.832;16.838;2022-12-11T15:25:57;11.40;;;8.33;;
32365;SDS011;18837;46.832;16.838;2022-12-11T15:28:34;12.47;;;8.43;;
32365;SDS011;18837;46.832;16.838;2022-12-11T15:31:06;14.10;;;8.30;;
32365;SDS011;18837;46.832;16.838;2022-12-11T15:33:50;10.57;;;8.17;;
32365;SDS011;18837;46.832;16.838;2022-12-11T15:36:34;12.00;;;8.90;;
32365;SDS011;18837;46.832;16.838;2022-12-11T15:39:01;11.90;;;8.73;;
32365;SDS011;18837;46.832;16.838;2022-12-11T15:41:29;11.87;;;8.50;;
32365;SDS011;18837;46.832;16.838;2022-12-11T15:43:59;12.60;;;8.10;;
32365;SDS011;18837;46.832;16.838;2022-12-11T15:46:26;9.70;;;7.80;;
32365;SDS011;18837;46.832;16.838;2022-12-11T15:48:54;11.10;;;7.77;;
32365;SDS011;18837;46.832;16.838;2022-12-11T15:51:21;12.17;;;8.63;;
32365;SDS011;18837;46.832;16.838;2022-12-11T15:53:47;11.43;;;8.17;;
32365;SDS011;18837;46.832;16.838;2022-12-11T15:56:14;11.73;;;8.63;;
32365;SDS011;18837;46.832;16.838;2022-12-11T15:58:44;12.77;;;9.23;;
32365;SDS011;18837;46.832;16.838;2022-12-11T16:01:17;10.93;;;8.57;;
32365;SDS011;18837;46.832;16.838;2022-12-11T16:03:43;10.17;;;7.90;;
32365;SDS011;18837;46.832;16.838;2022-12-11T16:06:10;10.63;;;7.90;;
32365;SDS011;18837;46.832;16.838;2022-12-11T16:08:37;10.53;;;8.10;;
32365;SDS011;18837;46.832;16.838;2022-12-11T16:11:03;10.07;;;8.10;;
32365;SDS011;18837;46.832;16.838;2022-12-11T16:13:29;12.83;;;8.03;;
32365;SDS011;18837;46.832;16.838;2022-12-11T16:15:55;11.20;;;8.50;;
32365;SDS011;18837;46.832;16.838;2022-12-11T16:18:22;10.50;;;7.93;;
32365;SDS011;18837;46.832;16.838;2022-12-11T16:20:50;10.57;;;7.83;;
32365;SDS011;18837;46.832;16.838;2022-12-11T16:23:17;13.93;;;8.67;;
32365;SDS011;18837;46.832;16.838;2022-12-11T16:25:48;16.10;;;9.07;;
32365;SDS011;18837;46.832;16.838;2022-12-11T16:28:18;14.23;;;9.40;;
32365;SDS011;18837;46.832;16.838;2022-12-11T16:30:45;16.30;;;9.93;;
32365;SDS011;18837;46.832;16.838;2022-12-11T16:35:58;13.57;;;9.33;;
32365;SDS011;18837;46.832;16.838;2022-12-11T16:38:24;11.13;;;8.10;;
32365;SDS011;18837;46.832;16.838;2022-12-11T16:40:57;11.40;;;9.47;;
32365;SDS011;18837;46.832;16.838;2022-12-11T16:43:27;14.60;;;8.67;;
32365;SDS011;18837;46.832;16.838;2022-12-11T16:45:53;13.10;;;9.20;;
32365;SDS011;18837;46.832;16.838;2022-12-11T16:48:20;13.87;;;8.93;;
32365;SDS011;18837;46.832;16.838;2022-12-11T16:50:47;11.93;;;8.03;;
32365;SDS011;18837;46.832;16.838;2022-12-11T16:53:13;11.90;;;8.83;;
32365;SDS011;18837;46.832;16.838;2022-12-11T16:55:40;11.97;;;8.20;;
32365;SDS011;18837;46.832;16.838;2022-12-11T16:58:06;10.80;;;7.83;;
32365;SDS011;18837;46.832;16.838;2022-12-11T17:00:32;9.53;;;6.83;;
32365;SDS011;18837;46.832;16.838;2022-12-11T17:02:58;10.37;;;7.37;;
32365;SDS011;18837;46.832;16.838;2022-12-11T17:05:23;10.40;;;7.17;;
32365;SDS011;18837;46.832;16.838;2022-12-11T17:07:49;9.33;;;7.60;;
32365;SDS011;18837;46.832;16.838;2022-12-11T17:10:15;9.30;;;7.50;;
32365;SDS011;18837;46.832;16.838;2022-12-11T17:12:41;9.73;;;7.50;;
32365;SDS011;18837;46.832;16.838;2022-12-11T17:15:07;8.87;;;6.80;;
32365;SDS011;18837;46.832;16.838;2022-12-11T17:17:34;9.97;;;7.63;;
32365;SDS011;18837;46.832;16.838;2022-12-11T17:20:00;9.27;;;6.60;;
32365;SDS011;18837;46.832;16.838;2022-12-11T17:22:27;8.07;;;6.20;;
32365;SDS011;18837;46.832;16.838;2022-12-11T17:24:54;9.17;;;7.17;;
32365;SDS011;18837;46.832;16.838;2022-12-11T17:27:24;8.67;;;6.60;;
32365;SDS011;18837;46.832;16.838;2022-12-11T17:29:50;8.70;;;6.53;;
32365;SDS011;18837;46.832;16.838;2022-12-11T17:32:15;8.50;;;6.43;;
32365;SDS011;18837;46.832;16.838;2022-12-11T17:34:42;7.70;;;6.57;;
32365;SDS011;18837;46.832;16.838;2022-12-11T17:37:09;8.37;;;6.33;;
32365;SDS011;18837;46.832;16.838;2022-12-11T17:39:37;9.20;;;6.53;;
32365;SDS011;18837;46.832;16.838;2022-12-11T17:42:04;6.80;;;5.90;;
32365;SDS011;18837;46.832;16.838;2022-12-11T17:44:32;8.47;;;6.20;;
32365;SDS011;18837;46.832;16.838;2022-12-11T17:46:59;8.07;;;6.37;;
32365;SDS011;18837;46.832;16.838;2022-12-11T17:49:27;8.57;;;6.60;;
32365;SDS011;18837;46.832;16.838;2022-12-11T17:51:53;8.90;;;6.83;;
32365;SDS011;18837;46.832;16.838;2022-12-11T17:54:21;9.23;;;6.23;;